Time;durP1;ratioP1;P1;durP2;ratioP2;P2;SDS_P1;SDS_P2;PMS_P1;PMS_P2;Temp;Humidity;BMP_temperature;BMP_pressure;BME280_temperature;BME280_humidity;BME280_pressure;Samples;Min_cycle;Max_cycle;Signal;HPM_P1;HPM_P2
2022/12/15 00:40:58;;;;;;;27.02;16.52;;;-0.50;99.90;;;;;;5099353;27;20248;-80
2022/12/15 00:43:27;;;;;;;21.77;16.27;;;-0.40;99.90;;;;;;5094026;28;20237;-80
2022/12/15 00:48:42;;;;;;;22.17;15.80;;;-0.40;99.90;;;;;;5094741;27;20206;-78
2022/12/15 00:51:11;;;;;;;22.02;15.40;;;-0.40;99.90;;;;;;5099127;28;20196;-80
2022/12/15 01:21:23;;;;;;;23.13;15.90;;;-0.40;1.00;;;;;;5089088;28;20191;-78
2022/12/15 01:23:53;;;;;;;23.33;14.45;;;-0.40;99.90;;;;;;5088967;28;20670;-76
2022/12/15 01:26:21;;;;;;;20.33;14.98;;;-0.50;99.90;;;;;;5095343;28;20784;-80
2022/12/15 01:28:51;;;;;;;25.95;17.98;;;-0.50;1.00;;;;;;5091702;28;20203;-77
2022/12/15 01:31:20;;;;;;;22.60;14.40;;;-0.50;1.00;;;;;;5086368;28;20196;-77
2022/12/15 01:33:54;;;;;;;21.55;15.45;;;-0.40;1.00;;;;;;5093959;27;20258;-79
2022/12/15 01:36:24;;;;;;;24.10;16.55;;;-0.40;1.00;;;;;;5092336;28;20194;-78
2022/12/15 01:38:54;;;;;;;25.25;15.10;;;-0.40;1.00;;;;;;5096884;28;20196;-78
2022/12/15 01:41:23;;;;;;;19.73;14.70;;;-0.50;1.00;;;;;;5095290;28;20694;-78
2022/12/15 01:43:53;;;;;;;23.00;14.70;;;-0.50;1.00;;;;;;5093690;28;20330;-79
2022/12/15 01:46:23;;;;;;;23.42;14.93;;;-0.30;1.00;;;;;;5090632;28;20272;-79
2022/12/15 01:48:56;;;;;;;25.33;15.15;;;-0.40;99.90;;;;;;5088713;28;20187;-78
2022/12/15 01:51:30;;;;;;;25.02;15.55;;;-0.40;1.00;;;;;;5090689;28;20215;-79
2022/12/15 01:54:03;;;;;;;22.92;16.00;;;-0.40;1.00;;;;;;5092418;28;20255;-77
2022/12/15 01:56:33;;;;;;;25.13;16.05;;;-0.40;1.00;;;;;;5096643;28;20199;-78
2022/12/15 01:59:11;;;;;;;20.70;15.07;;;-0.40;1.00;;;;;;5093507;28;20233;-76
2022/12/15 02:01:39;;;;;;;21.50;15.45;;;-0.40;1.00;;;;;;5096463;28;20222;-77
2022/12/15 02:04:08;;;;;;;24.95;15.55;;;-0.40;99.90;;;;;;5089609;28;20686;-78
2022/12/15 02:06:36;;;;;;;21.58;14.52;;;-0.40;1.00;;;;;;5095264;28;20203;-78
2022/12/15 02:09:05;;;;;;;24.77;16.35;;;-0.40;1.00;;;;;;5094807;28;20203;-79
2022/12/15 02:11:56;;;;;;;24.85;16.15;;;-0.40;1.00;;;;;;5092523;28;20617;-78
2022/12/15 02:14:45;;;;;;;25.02;15.65;;;-0.50;1.00;;;;;;5093960;28;20279;-77
2022/12/15 02:17:22;;;;;;;22.52;14.20;;;-0.40;1.00;;;;;;5091033;28;20188;-78
2022/12/15 02:20:27;;;;;;;21.73;15.95;;;-0.40;1.00;;;;;;5095708;28;20234;-78
2022/12/15 02:23:16;;;;;;;22.27;15.82;;;-0.40;1.00;;;;;;5095151;28;20222;-77
2022/12/15 02:25:59;;;;;;;24.17;15.02;;;-0.40;99.90;;;;;;5087158;28;20266;-79
2022/12/15 02:28:41;;;;;;;25.17;16.27;;;-0.40;99.90;;;;;;5091471;28;20568;-79
2022/12/15 02:34:10;;;;;;;25.58;16.63;;;-0.40;99.90;;;;;;5094269;28;20796;-78
2022/12/15 02:36:42;;;;;;;23.20;14.32;;;-0.30;1.00;;;;;;5091551;28;20202;-78
2022/12/15 02:39:12;;;;;;;22.88;14.95;;;-0.30;99.90;;;;;;5101134;27;20196;-78
2022/12/15 02:41:42;;;;;;;25.60;17.00;;;-0.40;1.00;;;;;;5098200;28;20203;-78
2022/12/15 02:44:14;;;;;;;26.38;16.75;;;-0.30;1.00;;;;;;5097650;28;20224;-78
2022/12/15 02:47:08;;;;;;;23.33;15.95;;;-0.40;99.90;;;;;;5092412;28;20199;-79
2022/12/15 02:49:49;;;;;;;24.50;15.77;;;-0.50;99.90;;;;;;5091109;28;20314;-78
2022/12/15 02:52:31;;;;;;;25.42;15.98;;;-0.50;1.00;;;;;;5094611;28;20257;-79
2022/12/15 02:55:12;;;;;;;29.13;14.90;;;-0.40;1.00;;;;;;5096129;28;20890;-78
2022/12/15 02:57:47;;;;;;;22.63;15.20;;;-0.40;1.00;;;;;;5096396;27;20199;-78
2022/12/15 03:00:17;;;;;;;27.90;16.02;;;-0.40;1.00;;;;;;5102969;27;20195;-77
2022/12/15 03:02:50;;;;;;;22.73;15.88;;;-0.40;1.00;;;;;;5098763;28;20207;-79
2022/12/15 03:05:20;;;;;;;27.50;17.58;;;-0.40;1.00;;;;;;5098419;28;20211;-78
2022/12/15 03:07:50;;;;;;;24.70;15.55;;;-0.40;1.00;;;;;;5098820;27;20211;-79
2022/12/15 03:10:22;;;;;;;29.50;15.95;;;-0.40;1.00;;;;;;5099324;28;20294;-76
2022/12/15 03:12:50;;;;;;;24.92;15.80;;;-0.40;1.00;;;;;;5095014;28;20761;-75
2022/12/15 03:15:19;;;;;;;23.15;15.50;;;-0.40;1.00;;;;;;5097529;28;20314;-79
2022/12/15 03:17:48;;;;;;;25.02;16.08;;;-0.40;1.00;;;;;;5102672;27;20673;-78
2022/12/15 03:20:17;;;;;;;22.40;14.50;;;-0.30;1.00;;;;;;5095244;27;20200;-79
2022/12/15 03:22:45;;;;;;;26.52;15.57;;;-0.30;1.00;;;;;;5104907;28;20203;-78
2022/12/15 03:25:13;;;;;;;25.77;17.23;;;-0.40;1.00;;;;;;5094534;28;20318;-79
2022/12/15 03:27:43;;;;;;;24.90;16.23;;;-0.30;1.00;;;;;;5096591;27;20215;-78
2022/12/15 03:30:12;;;;;;;22.67;17.05;;;-0.40;1.00;;;;;;5094815;28;20203;-80
2022/12/15 03:32:40;;;;;;;26.65;15.55;;;-0.40;1.00;;;;;;5096293;28;20207;-78
2022/12/15 03:35:11;;;;;;;26.95;16.90;;;-0.30;1.00;;;;;;5094743;27;20225;-79
2022/12/15 03:37:40;;;;;;;27.63;16.20;;;-0.30;1.00;;;;;;5095680;28;20868;-79
2022/12/15 03:40:10;;;;;;;26.02;15.80;;;-0.30;1.00;;;;;;5097942;27;20200;-80
2022/12/15 03:42:50;;;;;;;31.35;16.58;;;-0.30;1.00;;;;;;5097065;28;20274;-80
2022/12/15 03:45:20;;;;;;;28.40;17.35;;;-0.30;1.00;;;;;;5095595;28;20223;-79
2022/12/15 03:47:49;;;;;;;26.02;17.05;;;-0.40;1.00;;;;;;5096802;27;20311;-79
2022/12/15 03:50:21;;;;;;;31.95;17.33;;;-0.30;1.00;;;;;;5101754;28;20667;-78
2022/12/15 03:52:54;;;;;;;29.75;18.10;;;-0.30;1.00;;;;;;5092587;28;20777;-77
2022/12/15 03:55:23;;;;;;;28.02;17.52;;;-0.40;1.00;;;;;;5094365;27;20230;-80
2022/12/15 03:57:51;;;;;;;24.77;16.35;;;-0.40;1.00;;;;;;5098251;27;20223;-79
2022/12/15 04:00:21;;;;;;;30.60;18.20;;;-0.40;1.00;;;;;;5098200;27;20241;-78
2022/12/15 04:02:49;;;;;;;29.60;19.40;;;-0.30;1.00;;;;;;5093770;28;20287;-78
2022/12/15 04:05:22;;;;;;;25.58;17.48;;;-0.30;1.00;;;;;;5103055;27;20246;-78
2022/12/15 04:07:50;;;;;;;28.48;18.33;;;-0.20;1.00;;;;;;5097588;28;20230;-80
2022/12/15 04:10:18;;;;;;;29.30;17.17;;;-0.20;1.00;;;;;;5094931;28;20217;-77
2022/12/15 04:12:46;;;;;;;34.53;19.00;;;-0.30;1.00;;;;;;5095837;28;20192;-78
2022/12/15 04:15:15;;;;;;;29.25;18.52;;;-0.30;1.00;;;;;;5097708;27;20260;-79
2022/12/15 04:17:43;;;;;;;27.90;17.20;;;-0.40;1.00;;;;;;5098722;27;20658;-79
2022/12/15 04:20:11;;;;;;;32.58;18.73;;;-0.40;1.00;;;;;;5101354;27;20195;-78
2022/12/15 04:22:42;;;;;;;27.25;18.15;;;-0.30;1.00;;;;;;5096275;28;20610;-78
2022/12/15 05:32:08;;;;;;;29.95;18.13;;;-0.30;1.00;;;;;;5089965;28;20197;-80
2022/12/15 05:34:37;;;;;;;29.83;18.58;;;-0.40;1.00;;;;;;5090999;27;20870;-81
2022/12/15 05:37:06;;;;;;;29.35;18.40;;;-0.30;1.00;;;;;;5090543;28;20192;-81
2022/12/15 05:39:34;;;;;;;33.83;19.67;;;-0.30;1.00;;;;;;5097220;27;20238;-80
2022/12/15 05:42:02;;;;;;;31.13;20.15;;;-0.30;1.00;;;;;;5090405;28;20587;-81
2022/12/15 05:44:32;;;;;;;31.45;19.10;;;-0.30;1.00;;;;;;5093488;27;20915;-84
2022/12/15 05:47:00;;;;;;;34.72;19.90;;;-0.30;1.00;;;;;;5091564;28;20199;-83
2022/12/15 05:49:32;;;;;;;34.95;20.63;;;-0.20;1.00;;;;;;5092605;28;20212;-83
2022/12/15 05:52:03;;;;;;;31.42;20.67;;;-0.20;1.00;;;;;;5094831;28;20196;-82
2022/12/15 05:54:31;;;;;;;32.75;20.27;;;-0.30;1.00;;;;;;5096653;28;20276;-83
2022/12/15 05:56:59;;;;;;;33.28;21.10;;;-0.10;1.00;;;;;;5114808;27;20276;-81
2022/12/15 05:59:28;;;;;;;28.35;19.75;;;-0.10;99.90;;;;;;5102434;27;20256;-81
2022/12/15 06:01:57;;;;;;;29.30;18.60;;;-0.10;99.90;;;;;;5097284;28;20264;-82
2022/12/15 06:04:26;;;;;;;30.95;17.65;;;-0.10;99.90;;;;;;5100932;28;20219;-81
2022/12/15 06:06:54;;;;;;;32.75;19.88;;;-0.10;99.90;;;;;;5102840;28;20200;-81
2022/12/15 06:09:22;;;;;;;35.30;20.05;;;-0.20;99.90;;;;;;5094298;28;20234;-80
2022/12/15 06:11:50;;;;;;;34.15;19.00;;;-0.20;99.90;;;;;;5097250;28;20796;-81
2022/12/15 06:14:18;;;;;;;32.40;19.60;;;-0.20;99.90;;;;;;5100823;28;20246;-81
2022/12/15 06:16:46;;;;;;;31.85;18.85;;;-0.30;99.90;;;;;;5107000;28;20618;-81
2022/12/15 06:19:19;;;;;;;30.58;18.65;;;-0.30;99.90;;;;;;5099407;28;20220;-82
2022/12/15 06:21:48;;;;;;;32.83;19.33;;;-0.30;99.90;;;;;;5099328;28;20208;-82
2022/12/15 06:24:16;;;;;;;35.72;20.52;;;-0.40;99.90;;;;;;5100645;28;20344;-81
2022/12/15 06:26:44;;;;;;;28.00;18.20;;;-0.30;99.90;;;;;;5104694;28;20282;-83
2022/12/15 06:29:13;;;;;;;30.63;17.13;;;-0.30;99.90;;;;;;5095335;28;20283;-82
2022/12/15 06:31:42;;;;;;;31.25;20.27;;;-0.40;99.90;;;;;;5096603;28;20199;-81
2022/12/15 06:34:13;;;;;;;35.67;19.65;;;-0.30;99.90;;;;;;5100435;28;20448;-81
2022/12/15 06:36:43;;;;;;;32.40;18.75;;;-0.30;99.90;;;;;;5096016;28;20437;-80
2022/12/15 06:39:13;;;;;;;29.73;17.85;;;-0.30;99.90;;;;;;5096430;28;20195;-82
2022/12/15 06:41:42;;;;;;;31.23;18.75;;;-0.30;99.90;;;;;;5095521;28;20678;-82
2022/12/15 06:44:13;;;;;;;32.13;19.73;;;-0.40;99.90;;;;;;5098004;28;20220;-82
2022/12/15 06:46:42;;;;;;;28.63;19.15;;;-0.30;1.00;;;;;;5096951;28;20188;-80
2022/12/15 06:49:10;;;;;;;33.95;19.90;;;-0.30;1.00;;;;;;5097060;28;20219;-82
2022/12/15 06:51:40;;;;;;;31.00;19.00;;;-0.30;99.90;;;;;;5103881;28;20222;-82
2022/12/15 06:54:11;;;;;;;31.38;19.92;;;-0.30;99.90;;;;;;5095547;28;20218;-81
2022/12/15 06:56:39;;;;;;;35.08;19.23;;;-0.30;99.90;;;;;;5094214;28;20285;-80
2022/12/15 06:59:08;;;;;;;29.60;18.60;;;-0.30;99.90;;;;;;5097307;28;20208;-80
2022/12/15 07:01:36;;;;;;;34.70;20.38;;;-0.30;99.90;;;;;;5103790;28;21303;-80
2022/12/15 07:04:04;;;;;;;30.52;18.63;;;-0.30;1.00;;;;;;5090783;28;20212;-80
2022/12/15 07:06:36;;;;;;;32.78;20.52;;;-0.30;99.90;;;;;;5095467;28;20269;-82
2022/12/15 07:09:07;;;;;;;31.30;17.92;;;-0.30;1.00;;;;;;5095256;28;20223;-80
2022/12/15 07:11:36;;;;;;;30.08;19.92;;;-0.40;99.90;;;;;;5100385;28;20255;-79
2022/12/15 07:14:04;;;;;;;33.17;19.98;;;-0.30;1.00;;;;;;5099275;28;20211;-80
2022/12/15 07:16:33;;;;;;;30.60;18.13;;;-0.30;99.90;;;;;;5101876;28;20607;-80
2022/12/15 07:19:01;;;;;;;31.95;19.25;;;-0.40;99.90;;;;;;5102530;28;20876;-80
2022/12/15 07:21:30;;;;;;;28.30;18.10;;;-0.30;99.90;;;;;;5085644;28;20200;-79
2022/12/15 07:23:58;;;;;;;31.77;18.95;;;-0.40;99.90;;;;;;5090711;28;20223;-79
2022/12/15 07:26:28;;;;;;;29.52;18.63;;;-0.40;99.90;;;;;;5101024;27;20187;-80
2022/12/15 07:28:57;;;;;;;30.20;18.80;;;-0.40;1.00;;;;;;5103608;27;20240;-80
2022/12/15 07:31:25;;;;;;;31.83;18.77;;;-0.30;1.00;;;;;;5095643;28;20219;-79
2022/12/15 07:33:54;;;;;;;33.90;18.33;;;-0.20;1.00;;;;;;5093543;28;20219;-79
2022/12/15 07:36:22;;;;;;;29.80;19.38;;;-0.30;1.00;;;;;;5093875;28;20200;-81
2022/12/15 07:38:50;;;;;;;29.88;18.40;;;-0.20;1.00;;;;;;5095688;28;20940;-81
2022/12/15 07:41:20;;;;;;;28.45;19.25;;;-0.20;1.00;;;;;;5097062;27;20192;-80
2022/12/15 07:43:48;;;;;;;33.72;20.80;;;-0.10;1.00;;;;;;5099345;27;20215;-79
2022/12/15 07:46:19;;;;;;;33.47;21.02;;;0.00;99.90;;;;;;5102325;28;20203;-80
2022/12/15 07:48:47;;;;;;;28.98;17.92;;;0.00;99.90;;;;;;5095609;28;20292;-84
2022/12/15 07:51:18;;;;;;;30.40;19.08;;;0.00;99.90;;;;;;5097499;28;20218;-81
2022/12/15 07:53:48;;;;;;;28.52;18.67;;;-0.10;99.90;;;;;;5101669;28;20225;-81
2022/12/15 07:56:17;;;;;;;37.95;19.02;;;0.00;99.90;;;;;;5105256;28;20263;-82
2022/12/15 07:58:45;;;;;;;29.85;17.17;;;-0.10;99.90;;;;;;5105629;28;20245;-82
2022/12/15 08:01:14;;;;;;;30.23;18.65;;;-0.10;99.90;;;;;;5109507;28;20237;-81
2022/12/15 08:03:44;;;;;;;33.00;18.70;;;-0.10;99.90;;;;;;5102015;28;20620;-81
2022/12/15 08:06:14;;;;;;;29.83;19.70;;;-0.10;99.90;;;;;;5095970;28;20283;-82
2022/12/15 08:08:44;;;;;;;31.77;21.65;;;-0.10;99.90;;;;;;5100679;27;20203;-81
2022/12/15 08:11:20;;;;;;;35.70;20.95;;;0.00;99.90;;;;;;5102324;27;20199;-81
2022/12/15 08:13:48;;;;;;;33.63;19.88;;;-0.10;99.90;;;;;;5096301;28;21052;-82
2022/12/15 08:16:33;;;;;;;30.35;21.27;;;-0.10;99.90;;;;;;5100633;27;20203;-82
2022/12/15 08:19:04;;;;;;;30.52;20.02;;;-0.10;99.90;;;;;;5101079;27;20265;-80
2022/12/15 08:21:32;;;;;;;32.35;21.00;;;-0.10;99.90;;;;;;5101673;27;20210;-81
2022/12/15 08:24:00;;;;;;;33.92;22.48;;;0.00;99.90;;;;;;5100219;28;20227;-81
2022/12/15 08:26:29;;;;;;;31.45;19.63;;;0.10;99.90;;;;;;5101929;27;20200;-82
2022/12/15 08:29:03;;;;;;;31.00;18.63;;;0.10;99.90;;;;;;5097840;27;20247;-82
2022/12/15 08:31:52;;;;;;;32.47;20.90;;;0.10;99.90;;;;;;5099980;28;20272;-82
2022/12/15 08:34:21;;;;;;;34.92;21.88;;;0.00;99.90;;;;;;5096190;27;20299;-82
2022/12/15 08:36:50;;;;;;;32.08;20.73;;;-0.10;99.90;;;;;;5096065;28;20555;-81
2022/12/15 08:39:19;;;;;;;30.02;19.45;;;0.00;1.00;;;;;;5099318;28;20787;-82
2022/12/15 08:41:47;;;;;;;34.53;20.23;;;0.10;1.00;;;;;;5099753;28;20188;-82
2022/12/15 08:44:16;;;;;;;39.15;21.63;;;0.20;1.00;;;;;;5096718;28;20231;-81
2022/12/15 08:46:44;;;;;;;37.80;20.90;;;0.20;1.00;;;;;;5092945;28;20206;-82
2022/12/15 08:49:12;;;;;;;34.72;19.70;;;0.30;99.90;;;;;;5091594;28;20210;-82
2022/12/15 08:51:50;;;;;;;33.22;21.73;;;0.20;99.90;;;;;;5097174;28;20211;-82
2022/12/15 08:54:20;;;;;;;31.48;18.52;;;0.30;1.00;;;;;;5104460;28;20219;-80
2022/12/15 08:56:48;;;;;;;32.35;19.13;;;0.30;99.90;;;;;;5106568;28;20204;-81
2022/12/15 08:59:17;;;;;;;35.20;20.75;;;0.30;99.90;;;;;;5096901;28;20293;-80
2022/12/15 09:01:46;;;;;;;33.55;20.20;;;0.30;1.00;;;;;;5096437;28;20341;-80
2022/12/15 09:04:15;;;;;;;35.22;19.27;;;0.30;1.00;;;;;;5095191;28;20301;-82
2022/12/15 09:06:44;;;;;;;33.72;20.25;;;0.40;1.00;;;;;;5100304;28;20203;-82
2022/12/15 09:09:19;;;;;;;31.40;19.25;;;0.30;99.90;;;;;;5097310;28;20195;-82
2022/12/15 09:11:48;;;;;;;32.55;18.08;;;0.30;99.90;;;;;;5095784;28;20212;-83
2022/12/15 09:14:17;;;;;;;31.92;20.25;;;0.30;99.90;;;;;;5097952;28;20207;-81
2022/12/15 09:16:54;;;;;;;30.40;18.63;;;0.40;1.00;;;;;;5098469;28;20249;-79
2022/12/15 09:19:22;;;;;;;34.25;20.17;;;0.50;1.00;;;;;;5093886;27;20192;-81
2022/12/15 09:21:50;;;;;;;27.98;17.58;;;0.60;1.00;;;;;;5090573;28;20183;-81
2022/12/15 09:24:20;;;;;;;28.83;19.13;;;0.70;99.90;;;;;;5098478;27;20219;-81
2022/12/15 09:27:02;;;;;;;26.05;18.80;;;0.80;99.90;;;;;;5099087;28;20292;-82
2022/12/15 09:29:30;;;;;;;32.83;19.08;;;1.00;99.90;;;;;;5096836;28;20199;-81
2022/12/15 09:31:59;;;;;;;31.35;18.63;;;1.10;99.90;;;;;;5097966;28;20219;-81
2022/12/15 09:34:27;;;;;;;28.75;18.85;;;1.30;59.30;;;;;;5094877;28;20697;-82
2022/12/15 09:36:56;;;;;;;35.95;19.73;;;1.30;1.00;;;;;;5094516;28;20211;-81
2022/12/15 09:39:26;;;;;;;31.27;19.42;;;1.30;99.90;;;;;;5097729;28;20196;-80
2022/12/15 09:41:58;;;;;;;28.45;19.20;;;1.30;99.90;;;;;;5093729;28;20192;-82
2022/12/15 09:44:29;;;;;;;32.42;18.08;;;1.30;1.00;;;;;;5102519;28;20211;-82
2022/12/15 09:47:16;;;;;;;30.98;20.73;;;1.20;99.90;;;;;;5098868;28;20213;-82
2022/12/15 09:49:54;;;;;;;40.03;25.48;;;1.20;99.90;;;;;;5103076;28;20701;-81
2022/12/15 09:52:27;;;;;;;30.45;19.52;;;1.20;99.90;;;;;;5094809;28;20211;-81
2022/12/15 09:55:00;;;;;;;41.70;24.05;;;1.10;1.00;;;;;;5098477;28;20298;-81
2022/12/15 09:57:40;;;;;;;36.75;21.10;;;1.00;74.70;;;;;;5096180;28;20203;-81
2022/12/15 10:00:19;;;;;;;37.67;22.63;;;1.00;1.00;;;;;;5099992;28;20191;-82
2022/12/15 10:03:17;;;;;;;35.33;19.27;;;1.00;99.90;;;;;;5102509;28;20228;-80
2022/12/15 10:05:59;;;;;;;41.67;25.58;;;1.00;99.90;;;;;;5092904;28;20294;-81
2022/12/15 10:08:48;;;;;;;42.97;24.38;;;1.00;99.90;;;;;;5100216;28;20236;-81
2022/12/15 10:11:26;;;;;;;41.50;22.60;;;1.00;99.90;;;;;;5102485;28;20216;-81
2022/12/15 10:14:02;;;;;;;32.33;21.02;;;1.10;99.90;;;;;;5098922;28;20214;-81
2022/12/15 10:16:36;;;;;;;38.22;22.02;;;1.20;99.90;;;;;;5096471;28;20274;-80
2022/12/15 10:19:12;;;;;;;34.42;20.67;;;1.10;99.90;;;;;;5096623;28;20259;-80
2022/12/15 10:21:41;;;;;;;31.90;22.77;;;1.10;99.90;;;;;;5095405;28;20196;-80
2022/12/15 10:24:16;;;;;;;31.58;21.98;;;1.10;99.90;;;;;;5095666;28;20218;-81
2022/12/15 10:27:18;;;;;;;34.15;21.65;;;1.10;99.90;;;;;;5099024;28;20199;-81
2022/12/15 10:29:51;;;;;;;32.00;21.63;;;1.10;99.90;;;;;;5099962;28;20195;-81
2022/12/15 10:32:22;;;;;;;36.90;22.10;;;1.20;99.90;;;;;;5101891;28;20255;-81
2022/12/15 10:34:51;;;;;;;37.10;22.60;;;1.30;99.90;;;;;;5100346;28;20215;-80
2022/12/15 10:37:20;;;;;;;37.88;23.30;;;1.40;99.90;;;;;;5093957;28;20202;-80
2022/12/15 10:39:50;;;;;;;41.50;25.67;;;1.30;99.90;;;;;;5100671;28;20199;-80
2022/12/15 10:42:22;;;;;;;43.60;24.55;;;1.30;99.90;;;;;;5099335;28;21011;-81
2022/12/15 10:44:53;;;;;;;41.47;24.63;;;1.20;1.00;;;;;;5100364;28;20268;-81
2022/12/15 10:47:24;;;;;;;43.25;25.98;;;1.30;99.90;;;;;;5092994;28;20210;-80
2022/12/15 10:49:53;;;;;;;35.47;22.60;;;1.20;99.90;;;;;;5093140;28;20188;-81
2022/12/15 10:52:26;;;;;;;39.28;24.27;;;1.20;99.90;;;;;;5095628;28;20261;-80
2022/12/15 10:54:55;;;;;;;34.35;21.05;;;1.00;99.90;;;;;;5095720;28;20211;-80
2022/12/15 10:57:30;;;;;;;36.47;21.33;;;1.00;99.90;;;;;;5093140;28;20204;-81
2022/12/15 11:00:27;;;;;;;40.40;24.92;;;1.00;99.90;;;;;;5102015;28;20701;-80
2022/12/15 11:02:56;;;;;;;38.88;23.90;;;1.00;99.90;;;;;;5111085;27;20192;-81
2022/12/15 11:05:26;;;;;;;34.95;21.88;;;1.20;1.00;;;;;;5096359;28;20218;-81
2022/12/15 11:07:59;;;;;;;36.42;22.50;;;1.10;99.90;;;;;;5095119;28;20236;-82
2022/12/15 11:12:50;;;;;;;38.83;22.55;;;0.90;99.90;;;;;;5096635;28;20206;-80
2022/12/15 11:13:21;;;;;;;39.90;20.90;;;1.00;99.90;;;;;;5100315;28;20230;-81
2022/12/15 11:15:50;;;;;;;39.85;21.70;;;1.00;99.90;;;;;;5100624;28;20317;-82
2022/12/15 11:18:25;;;;;;;35.47;21.95;;;1.10;99.90;;;;;;5103494;27;20203;-81
2022/12/15 11:21:00;;;;;;;39.17;23.20;;;1.10;1.00;;;;;;5097678;28;20203;-81
2022/12/15 11:23:40;;;;;;;40.38;23.85;;;1.30;1.00;;;;;;5098753;27;20291;-80
2022/12/15 11:26:26;;;;;;;40.08;22.85;;;1.30;99.90;;;;;;5099512;28;20214;-80
2022/12/15 11:29:00;;;;;;;36.80;23.35;;;1.30;99.90;;;;;;5100580;27;20195;-80
2022/12/15 11:31:34;;;;;;;41.95;23.23;;;1.30;99.90;;;;;;5096450;28;20215;-81
2022/12/15 11:34:03;;;;;;;33.22;21.05;;;1.30;99.90;;;;;;5095340;28;20300;-79
2022/12/15 11:37:03;;;;;;;36.20;22.55;;;1.30;85.00;;;;;;5098987;28;20215;-81
2022/12/15 11:39:45;;;;;;;37.33;22.08;;;1.30;99.90;;;;;;5083701;28;20875;-79
2022/12/15 11:42:21;;;;;;;36.50;20.42;;;1.30;99.90;;;;;;5096744;28;20199;-79
2022/12/15 11:45:02;;;;;;;34.10;20.83;;;1.30;99.90;;;;;;5098586;27;20463;-79
2022/12/15 11:47:39;;;;;;;33.58;20.45;;;1.30;99.90;;;;;;5102158;27;20195;-80
2022/12/15 11:50:19;;;;;;;37.80;21.25;;;1.40;99.90;;;;;;5096648;28;20348;-80
2022/12/15 11:53:00;;;;;;;34.03;22.92;;;1.30;99.90;;;;;;5092429;28;20224;-80
2022/12/15 11:55:40;;;;;;;34.08;21.30;;;1.40;99.90;;;;;;5100380;28;20216;-80
2022/12/15 11:58:27;;;;;;;36.30;22.75;;;1.50;99.90;;;;;;5103388;28;20215;-81
2022/12/15 12:01:05;;;;;;;34.13;20.45;;;1.50;99.90;;;;;;5103307;28;20654;-81
2022/12/15 12:03:44;;;;;;;37.22;21.33;;;1.60;99.90;;;;;;5097650;27;20195;-77
2022/12/15 12:06:19;;;;;;;34.10;19.55;;;1.60;99.90;;;;;;5111767;27;20258;-75
2022/12/15 12:09:01;;;;;;;28.52;18.90;;;1.60;99.90;;;;;;5095076;28;20190;-76
2022/12/15 12:11:40;;;;;;;37.58;22.88;;;1.70;99.90;;;;;;5086532;28;20444;-81
2022/12/15 12:14:18;;;;;;;33.45;20.35;;;1.70;99.90;;;;;;5097787;27;20231;-81
2022/12/15 12:16:55;;;;;;;27.75;18.45;;;1.70;1.00;;;;;;5101820;27;20202;-81
2022/12/15 12:19:28;;;;;;;30.08;21.17;;;1.70;1.00;;;;;;5096774;28;20262;-81
2022/12/15 12:22:04;;;;;;;31.63;20.48;;;1.70;99.90;;;;;;5098192;28;20192;-81
2022/12/15 12:24:38;;;;;;;32.05;20.27;;;1.80;99.90;;;;;;5096028;28;20215;-81
2022/12/15 12:27:12;;;;;;;35.45;20.33;;;1.90;75.40;;;;;;5097739;28;20235;-81
2022/12/15 12:29:45;;;;;;;35.47;20.20;;;1.90;61.90;;;;;;5097294;28;20187;-81
2022/12/15 12:32:24;;;;;;;36.88;23.25;;;1.90;99.90;;;;;;5099388;28;20215;-82
2022/12/15 12:35:03;;;;;;;35.03;20.00;;;2.00;99.90;;;;;;5100279;28;20217;-83
2022/12/15 12:37:55;;;;;;;33.55;20.90;;;2.00;7.30;;;;;;5096240;28;20224;-81
2022/12/15 12:40:45;;;;;;;34.70;20.58;;;1.90;1.00;;;;;;5086316;28;20201;-80
2022/12/15 12:43:26;;;;;;;34.35;18.42;;;2.00;1.00;;;;;;5093659;27;20237;-80
2022/12/15 12:45:58;;;;;;;31.40;20.60;;;1.90;1.00;;;;;;5094637;28;20192;-79
2022/12/15 12:48:33;;;;;;;30.15;19.30;;;2.00;1.00;;;;;;5094820;28;20204;-81
2022/12/15 12:51:23;;;;;;;32.95;18.90;;;1.90;1.00;;;;;;5095724;27;20218;-77
2022/12/15 12:53:54;;;;;;;36.60;20.30;;;1.90;68.30;;;;;;5091921;28;20224;-79
2022/12/15 12:56:31;;;;;;;35.80;20.65;;;1.90;1.00;;;;;;5100640;28;20196;-79
2022/12/15 12:58:59;;;;;;;32.78;19.00;;;2.00;54.50;;;;;;5092704;28;20226;-80
2022/12/15 13:01:33;;;;;;;34.85;20.92;;;1.90;1.00;;;;;;5100938;28;20205;-80
2022/12/15 13:04:09;;;;;;;31.50;19.52;;;1.90;1.00;;;;;;5096423;28;20305;-80
2022/12/15 13:06:59;;;;;;;32.45;19.02;;;1.90;99.90;;;;;;5099678;28;20197;-80
2022/12/15 13:09:40;;;;;;;35.00;21.38;;;1.90;1.00;;;;;;5102020;27;20204;-80
2022/12/15 13:12:34;;;;;;;32.65;21.17;;;1.70;99.90;;;;;;5097884;28;20700;-79
2022/12/15 13:15:36;;;;;;;34.60;20.92;;;1.70;99.90;;;;;;5102561;28;20282;-80
2022/12/15 13:18:08;;;;;;;33.58;20.73;;;1.70;99.90;;;;;;5091843;28;20257;-79
2022/12/15 13:20:38;;;;;;;35.90;21.02;;;1.70;99.90;;;;;;5092115;27;20196;-79
2022/12/15 13:23:36;;;;;;;38.17;19.85;;;1.70;99.90;;;;;;5095293;28;20536;-80
2022/12/15 13:26:18;;;;;;;29.65;20.38;;;1.70;99.90;;;;;;5098170;28;20784;-79
2022/12/15 13:28:50;;;;;;;31.02;19.98;;;1.70;1.00;;;;;;5094893;28;20196;-78
2022/12/15 13:31:47;;;;;;;29.48;19.10;;;1.60;99.90;;;;;;5098693;28;20199;-80
2022/12/15 13:34:22;;;;;;;32.78;21.35;;;1.60;99.90;;;;;;5099695;28;20731;-79
2022/12/15 13:37:00;;;;;;;29.50;20.27;;;1.60;99.90;;;;;;5102145;28;20198;-79
2022/12/15 13:39:56;;;;;;;36.35;21.00;;;1.70;99.90;;;;;;5103920;28;21033;-79
2022/12/15 13:42:36;;;;;;;30.50;21.23;;;1.70;99.90;;;;;;5095586;28;20199;-80
2022/12/15 13:45:50;;;;;;;33.13;21.10;;;1.70;99.90;;;;;;5098817;28;20231;-79
2022/12/15 13:48:31;;;;;;;33.50;21.55;;;1.60;99.90;;;;;;5102874;28;20730;-79
2022/12/15 13:51:13;;;;;;;32.22;19.58;;;1.60;99.90;;;;;;5100855;28;20222;-80
2022/12/15 13:53:46;;;;;;;31.40;19.02;;;1.60;99.90;;;;;;5099198;27;20243;-80
2022/12/15 13:56:35;;;;;;;30.65;19.02;;;1.50;99.90;;;;;;5097913;28;20218;-78
2022/12/15 13:59:12;;;;;;;30.65;18.42;;;1.50;99.90;;;;;;5095579;28;20693;-80
2022/12/15 14:01:49;;;;;;;34.88;19.75;;;1.50;99.90;;;;;;5103307;27;20198;-80
2022/12/15 14:04:20;;;;;;;33.05;20.52;;;1.50;99.90;;;;;;5101529;27;20827;-80
2022/12/15 14:06:51;;;;;;;35.65;22.27;;;1.40;99.90;;;;;;5097337;28;20214;-80
2022/12/15 14:09:27;;;;;;;32.28;21.33;;;1.40;99.90;;;;;;5091285;28;20179;-79
2022/12/15 14:11:55;;;;;;;32.65;18.80;;;1.40;99.90;;;;;;5094262;28;20273;-77
2022/12/15 14:14:27;;;;;;;31.35;19.33;;;1.40;99.90;;;;;;5096939;28;20671;-80
2022/12/15 14:16:59;;;;;;;33.55;20.90;;;1.40;1.00;;;;;;5096955;28;20196;-79
2022/12/15 14:19:36;;;;;;;29.20;19.25;;;1.30;99.90;;;;;;5096115;28;20218;-78
2022/12/15 14:22:26;;;;;;;37.63;20.33;;;1.40;1.00;;;;;;5093507;28;20195;-80
2022/12/15 14:25:04;;;;;;;33.60;19.20;;;1.40;1.00;;;;;;5088537;28;20211;-79
2022/12/15 14:27:33;;;;;;;34.95;20.45;;;1.50;1.00;;;;;;5084898;28;20271;-79
2022/12/15 14:30:23;;;;;;;30.17;19.98;;;1.40;1.00;;;;;;5086362;28;20199;-77
2022/12/15 14:32:56;;;;;;;32.60;20.23;;;1.40;1.00;;;;;;5092074;28;20206;-78
2022/12/15 14:35:30;;;;;;;30.27;19.25;;;1.50;1.00;;;;;;5098894;28;20223;-79
2022/12/15 14:38:02;;;;;;;37.95;22.67;;;1.50;1.00;;;;;;5097044;27;20207;-80
2022/12/15 14:40:37;;;;;;;28.05;18.50;;;1.40;1.00;;;;;;5091575;28;20203;-78
2022/12/15 14:43:09;;;;;;;34.22;20.48;;;1.40;1.00;;;;;;5090394;28;20696;-78
2022/12/15 14:45:37;;;;;;;28.88;19.42;;;1.40;1.00;;;;;;5081670;28;20219;-78
2022/12/15 14:48:08;;;;;;;35.22;21.83;;;1.40;1.00;;;;;;5094714;28;20525;-79
2022/12/15 14:51:00;;;;;;;35.00;19.35;;;1.50;1.00;;;;;;5095683;28;20198;-79
2022/12/15 14:53:33;;;;;;;31.25;18.65;;;1.50;99.90;;;;;;5091249;28;20790;-79
2022/12/15 14:56:19;;;;;;;42.25;21.75;;;1.50;99.90;;;;;;5089123;28;20286;-79
2022/12/15 14:59:02;;;;;;;32.75;18.75;;;1.40;99.90;;;;;;5095660;28;20206;-80
2022/12/15 15:01:35;;;;;;;33.30;20.80;;;1.40;1.00;;;;;;5099936;28;20196;-79
2022/12/15 15:04:06;;;;;;;30.95;18.88;;;1.40;1.00;;;;;;5100167;27;20216;-79
2022/12/15 15:06:37;;;;;;;29.15;18.90;;;1.40;1.00;;;;;;5091794;28;20472;-77
2022/12/15 15:09:27;;;;;;;32.30;18.10;;;1.40;1.00;;;;;;5091743;28;20198;-80
2022/12/15 15:12:01;;;;;;;31.20;19.50;;;1.40;1.00;;;;;;5089712;28;20662;-80
2022/12/15 15:14:32;;;;;;;29.55;18.33;;;1.30;1.00;;;;;;5093796;27;20230;-80
2022/12/15 15:17:08;;;;;;;29.60;19.80;;;1.30;1.00;;;;;;5100667;28;20268;-79
2022/12/15 15:19:39;;;;;;;35.67;19.83;;;1.30;1.00;;;;;;5093540;27;20278;-79
2022/12/15 15:22:33;;;;;;;31.70;19.33;;;1.30;1.00;;;;;;5098725;28;20195;-79
2022/12/15 15:25:03;;;;;;;31.92;19.40;;;1.30;1.00;;;;;;5087763;28;20879;-78
2022/12/15 15:27:39;;;;;;;26.80;18.08;;;1.30;1.00;;;;;;5088380;28;20226;-77
2022/12/15 15:30:16;;;;;;;31.40;18.77;;;1.30;1.00;;;;;;5089651;28;20205;-78